Portada
METAR-TAF:

METAR-TAF

Aeroports :

Copenhaguen, Dinamarca

Aeroport de Copenhaguen

latitud: 55-37N, longitud: 012-39E, altitud: 5 m

Observació

L'informe es va fer fa 18 hores i 47 minuts, a les 14:50 UTC
Vent 7 kt del Est/Nord-Est
Temperatura 2°C
Humitat 87%
Pressió 1025 hPa
Visibilitat 10 km o més
Escasses núvols a una alçada de 1400 ft
Cel ennuvolat a una alçada de 4100 ft

METAR: EKCH 201450Z 07007KT 9999 FEW014 BKN041 02/M00 Q1025 NOSIG

Hora: 10:37 (09:37 UTC)

Pronòstic

L'informe es va fer fa 22 hores i 44 minuts, a les 10:53 UTC
Pronòstic vàlid del 20 a les 12 UTC al 21 a les 12 UTC
Vent 8 kt del Est
Visibilitat 10 km o més
Cel ennuvolat a una alçada de 3000 ft
Temporalment
l' 20 a les 19 UTC al 21 a les 12 UTC
Visibilitat: 4000 m
Cel ennuvolat a una alçada de 1200 ft
boirina

TAF: EKCH 201053Z 2012/2112 09008KT 9999 BKN030 TEMPO 2019/2112 4000 BR BKN012

Observacions i pronòstics meteorològics de més de 4000 aeroports (METAR i TAF).

Les estacions disponibles són els punts grocs i vermells al mapa.

Posi el ratolí al punt desitjat per veure el nom de l'estació.

Feu clic per veure les observacions i els pronòstics meteorològics.

Per canviar el mapa: feu clic els botons verds amb una creu de color negre per apropar; al botó verd amb un guió per allunyar la imatge; o en les fletxes verdes per a mapes adjacents.


METAR-TAF: